Stations météo

Publicité
Uccle, Belgique (6447): Température de l'air & dewpoint: 13.09.2019 16:00:00 - 19.09.2019 16:00:00 (CEST)Uccle, Belgique (6447): Vitesse du vent & gusts: 13.09.2019 16:00:00 - 19.09.2019 16:00:00 (CEST)Uccle, Belgique (6447): Direction du vent: 13.09.2019 16:00:00 - 19.09.2019 16:00:00 (CEST)Uccle, Belgique (6447): reduced air pressure: 13.09.2019 16:00:00 - 19.09.2019 16:00:00 (CEST)Uccle, Belgique (6447): Ensoleillement: 13.09.2019 16:00:00 - 19.09.2019 16:00:00 (CEST)Uccle, Belgique (6447): Quantités de précipitations: 13.09.2019 16:00:00 - 19.09.2019 16:00:00 (CEST)
Date & Time tt [°C] td [°C] ff [km/h] ff [knt] fx [km/h] fx [knt] dd ppp [hPa] sd [min] rr [mm]
19.09.2019 16:00:00 16,7 7,1 11 6 26 14 NE 1030,0 30 0,0
19.09.2019 15:00:00 16,0 7,0 12 7 19 11 ENE 1030,2 9 0,0
19.09.2019 14:00:00 15,5 6,8 7 4 27 14 NE 1030,6 8 0,0
19.09.2019 13:00:00 16,3 6,7 11 6 23 12 ENE 1031,0 47 0,0
19.09.2019 12:00:00 14,8 6,8 10 5 20 11 ENE 1030,9 60 0,0
19.09.2019 11:00:00 13,6 7,4 8 5 16 9 NE 1031,0 60 0,0
19.09.2019 10:00:00 11,4 7,4 7 4 14 7 E 1031,0 56 0,0
19.09.2019 09:00:00 8,8 6,9 4 2 12 6 ENE 1030,3 46 0,0
19.09.2019 08:00:00 8,0 6,1 7 4 13 7 ENE 1029,9 0 0,0
19.09.2019 07:00:00 8,2 6,6 9 5 13 7 ENE 1029,4 0 0,0
19.09.2019 06:00:00 8,1 6,2 8 5 14 8 NE 1029,3 0 0,0
19.09.2019 05:00:00 9,0 6,7 9 5 14 8 NE 1029,4 0 0,0
19.09.2019 04:00:00 9,3 6,7 9 5 13 7 NE 1029,3 0 0,0
19.09.2019 03:00:00 10,1 6,9 8 5 17 9 NE 1029,4 0 0,0
19.09.2019 02:00:00 10,6 6,9 11 6 18 10 NE 1029,3 0 0,0
19.09.2019 01:00:00 11,0 6,7 10 6 19 11 NE 1029,2 0 0,0
19.09.2019 00:00:00 11,6 6,6 10 6 23 12 NNE 1028,9 0 0,0
18.09.2019 23:00:00 12,4 6,5 12 6 23 12 NNE 1028,2 0 0,0
18.09.2019 22:00:00 13,0 6,1 11 6 29 16 NNE 1028,1 0 0,0
18.09.2019 21:00:00 14,1 5,8 16 8 30 16 NNE 1027,8 0 0,0
18.09.2019 20:00:00 15,0 5,8 14 8 27 14 N 1027,0 25 0,0
18.09.2019 19:00:00 15,7 6,5 13 7 32 17 N 1026,8 25 0,0
18.09.2019 18:00:00 16,1 6,2 16 9 29 16 N 1026,7 0 0,0
18.09.2019 17:00:00 16,7 4,8 12 7 24 13 N 1026,6 4 0,0
18.09.2019 16:00:00 16,9 4,3 12 7 26 14 NNE 1026,7 25 0,0
18.09.2019 15:00:00 16,6 4,1 12 7 21 12 NE 1027,0 22 0,0
18.09.2019 14:00:00 16,8 4,7 11 6 27 14 NNE 1027,5 29 0,0
18.09.2019 13:00:00 16,3 4,1 8 5 24 13 N 1027,8 54 0,0
18.09.2019 12:00:00 15,4 3,8 14 8 27 15 NE 1027,7 60 0,0
18.09.2019 11:00:00 14,4 5,6 11 6 19 11 NNE 1027,9 60 0,0
18.09.2019 10:00:00 12,6 12,6 7 4 14 7 NNE 1027,6 60 0,0
18.09.2019 09:00:00 8,5 8,5 6 3 8 4 NNE 1027,2 55 0,0
18.09.2019 08:00:00 7,2 7,2 4 2 8 4 N 1026,9 3 0,0
18.09.2019 07:00:00 7,1 7,1 4 2 6 3 SW 1026,5 0 0,0
18.09.2019 06:00:00 7,3 7,3 4 2 6 3 N 1026,3 0 0,0
18.09.2019 05:00:00 7,4 7,4 5 3 6 4 N 1026,1 0 0,0
18.09.2019 04:00:00 8,2 8,2 5 3 10 5 NNE 1026,0 0 0,0
18.09.2019 03:00:00 9,1 7,9 7 4 13 7 NNE 1026,0 0 0,0
18.09.2019 02:00:00 9,8 5,1 7 4 15 8 NNE 1025,9 0 0,0
18.09.2019 01:00:00 11,2 5,3 10 6 18 10 NNE 1025,8 0 0,0
18.09.2019 00:00:00 11,7 5,2 10 6 21 12 N 1025,4 0 0,0
17.09.2019 23:00:00 12,3 4,9 10 6 26 14 NNE 1025,1 0 0,0
17.09.2019 22:00:00 12,8 5,3 12 6 26 14 N 1024,8 0 0,0
17.09.2019 21:00:00 13,7 6,6 13 7 38 20 N 1024,3 0 0,0
17.09.2019 20:00:00 14,5 6,4 18 10 39 21 NNW 1023,6 21 0,0
17.09.2019 19:00:00 15,7 7,5 18 10 34 19 NNW 1023,2 42 0,0
17.09.2019 18:00:00 16,4 7,5 18 10 39 21 N 1022,7 34 0,0
17.09.2019 17:00:00 17,2 8,7 17 9 - - NNW 1022,6 32 0,0
17.09.2019 16:00:00 18,0 9,2 13 7 27 15 NNW 1022,3 21 0,0
17.09.2019 15:00:00 17,8 8,5 11 6 26 14 NNW 1022,2 14 0,0
17.09.2019 14:00:00 17,7 7,7 11 6 24 13 WNW 1022,4 48 0,0
17.09.2019 13:00:00 17,4 8,7 9 5 23 13 NW 1022,7 36 0,0
17.09.2019 12:00:00 16,2 16,2 8 5 20 11 NW 1022,7 35 0,0
17.09.2019 11:00:00 15,9 15,9 7 4 15 8 NNW 1022,6 60 0,0
17.09.2019 10:00:00 14,7 14,7 6 3 16 9 N 1022,4 60 0,0
17.09.2019 09:00:00 13,4 13,4 6 3 12 7 NNW 1021,9 60 0,0
17.09.2019 08:00:00 12,4 12,4 4 2 14 7 N 1021,7 8 0,0
17.09.2019 07:00:00 13,0 13,0 6 3 19 11 N 1021,3 0 0,0
17.09.2019 06:00:00 14,2 14,2 9 5 17 9 NNW 1021,2 0 0,0
17.09.2019 05:00:00 14,4 14,4 6 3 16 9 NW 1021,1 0 0,0
17.09.2019 04:00:00 14,8 14,8 9 5 16 8 NW 1021,1 0 0,0
17.09.2019 03:00:00 14,9 14,9 6 3 13 7 NNW 1021,2 0 0,0
17.09.2019 02:00:00 15,1 15,1 7 4 19 10 N 1021,5 0 0,0
17.09.2019 01:00:00 15,4 15,4 9 5 17 9 N 1021,4 0 0,0
17.09.2019 00:00:00 15,8 15,8 6 3 15 8 N 1021,2 0 0,0
16.09.2019 23:00:00 15,5 15,5 5 3 11 6 NNE 1021,1 0 0,0
16.09.2019 22:00:00 15,6 15,6 4 2 12 7 ENE 1020,8 0 0,0
16.09.2019 21:00:00 16,5 16,5 6 3 16 9 NNE 1020,5 0 0,0
16.09.2019 20:00:00 17,0 17,0 7 4 19 11 NNW 1020,2 0 0,0
16.09.2019 19:00:00 17,4 17,4 9 5 21 11 N 1020,0 0 0,0
16.09.2019 18:00:00 17,7 17,7 11 6 24 13 N 1020,1 0 0,0
16.09.2019 17:00:00 18,5 18,5 11 6 27 15 NNW 1019,8 0 0,1
16.09.2019 16:00:00 20,3 20,3 14 7 23 13 WNW 1019,6 0 0,0
16.09.2019 15:00:00 20,3 20,3 9 5 19 10 W 1019,8 0 0,0
16.09.2019 14:00:00 19,6 19,6 7 4 19 11 WSW 1019,8 0 0,0
16.09.2019 13:00:00 18,6 18,6 6 3 19 10 W 1019,9 0 0,0
16.09.2019 12:00:00 17,7 17,7 8 5 19 10 WSW 1020,2 0 0,0
16.09.2019 11:00:00 16,7 16,7 8 4 17 9 WSW 1020,2 0 0,0
16.09.2019 10:00:00 16,3 16,3 5 3 14 8 WSW 1020,0 0 0,0
16.09.2019 09:00:00 15,0 15,0 9 5 13 7 S 1019,9 0 0,0
16.09.2019 08:00:00 14,2 14,2 7 4 11 6 SSW 1020,1 0 0,0
16.09.2019 07:00:00 14,0 14,0 5 3 8 5 SW 1020,1 0 0,0
16.09.2019 06:00:00 13,8 13,8 5 3 9 5 SW 1020,2 0 0,0
16.09.2019 05:00:00 13,6 13,6 5 3 8 4 SW 1020,9 0 0,0
16.09.2019 04:00:00 14,1 14,1 5 3 7 4 W 1021,4 0 0,0
16.09.2019 03:00:00 14,5 14,5 4 2 14 8 WNW 1021,5 0 0,0
16.09.2019 02:00:00 14,7 14,7 7 4 11 6 SE 1021,5 0 0,0
16.09.2019 01:00:00 14,7 14,7 7 4 10 5 ESE 1022,1 0 0,0
16.09.2019 00:00:00 15,0 15,0 5 3 9 5 ESE 1022,3 0 0,0
15.09.2019 23:00:00 16,3 16,3 7 4 13 7 NNE 1022,5 0 0,0
15.09.2019 22:00:00 17,5 12,2 6 4 27 15 NNE 1022,6 0 0,0
15.09.2019 21:00:00 19,2 9,2 14 8 22 12 N 1022,4 0 0,0
15.09.2019 20:00:00 19,8 6,9 7 4 16 8 WNW 1021,8 24 0,0
15.09.2019 19:00:00 22,7 6,1 9 5 18 10 NW 1021,8 60 0,0
15.09.2019 18:00:00 23,6 7,4 9 5 23 12 WNW 1021,8 60 0,0
15.09.2019 17:00:00 23,8 9,0 9 5 24 13 W 1022,4 60 0,0
15.09.2019 16:00:00 23,5 7,8 10 5 21 11 W 1022,7 60 0,0
15.09.2019 15:00:00 23,1 9,8 8 4 21 12 W 1023,3 60 0,0
15.09.2019 14:00:00 21,7 11,7 7 4 22 12 W 1023,9 60 0,0
15.09.2019 13:00:00 21,0 10,8 14 7 24 13 W 1024,5 60 0,0
15.09.2019 12:00:00 20,2 11,4 9 5 20 11 WSW 1024,6 60 0,0
15.09.2019 11:00:00 18,3 18,3 7 4 16 9 W 1024,7 60 0,0
15.09.2019 10:00:00 16,2 16,2 5 3 10 6 SW 1024,5 60 0,0
15.09.2019 09:00:00 12,5 12,5 6 4 10 5 SSW 1024,4 60 0,0
15.09.2019 08:00:00 10,1 10,1 7 4 9 5 SW 1024,8 8 0,0
15.09.2019 07:00:00 9,9 9,9 6 3 8 5 SW 1025,0 0 0,0
15.09.2019 06:00:00 10,0 10,0 7 4 9 5 SW 1025,0 0 0,0
15.09.2019 05:00:00 10,2 10,2 5 3 7 4 WSW 1025,3 0 0,0
15.09.2019 04:00:00 10,5 10,5 5 3 8 5 W 1025,7 0 0,0
15.09.2019 03:00:00 11,5 11,5 8 4 10 5 SSW 1025,9 0 0,0
15.09.2019 02:00:00 11,9 7,6 4 2 10 5 S 1026,2 0 0,0
15.09.2019 01:00:00 12,2 8,1 5 3 9 5 ESE 1026,6 0 0,0
15.09.2019 00:00:00 12,7 12,7 5 3 13 7 E 1027,2 0 0,0
14.09.2019 23:00:00 14,0 12,4 8 4 14 7 ENE 1027,9 0 0,0
14.09.2019 22:00:00 15,0 9,4 10 5 14 8 NE 1028,1 0 0,0
14.09.2019 21:00:00 16,3 8,8 7 4 11 6 ENE 1028,2 0 0,0
14.09.2019 20:00:00 18,5 8,6 7 4 12 6 ENE 1028,2 25 0,0
14.09.2019 19:00:00 20,7 8,4 5 3 12 7 NE 1028,5 39 0,0
14.09.2019 18:00:00 22,1 7,9 8 5 18 10 ENE 1028,5 60 0,0
14.09.2019 17:00:00 22,3 7,4 10 5 18 10 NE 1028,9 60 0,0
14.09.2019 16:00:00 22,3 9,2 7 4 18 10 E 1029,7 60 0,0
14.09.2019 15:00:00 21,6 10,1 7 4 18 10 SE 1030,5 60 0,0
14.09.2019 14:00:00 20,3 10,3 7 4 18 10 E 1031,3 60 0,0
14.09.2019 13:00:00 19,2 11,1 10 5 18 10 NE 1032,1 60 0,0
14.09.2019 12:00:00 18,7 18,7 7 4 20 11 E 1032,5 60 0,0
14.09.2019 11:00:00 16,7 16,7 8 4 18 10 ENE 1033,1 60 0,0
14.09.2019 10:00:00 14,5 14,5 7 4 20 11 E 1033,0 60 0,0
14.09.2019 09:00:00 12,4 12,4 7 4 17 9 E 1033,1 60 0,0
14.09.2019 08:00:00 11,4 11,4 11 6 17 9 ENE 1032,8 13 0,0
14.09.2019 07:00:00 11,7 11,7 11 6 18 10 ENE 1032,8 0 0,0
14.09.2019 06:00:00 12,3 12,3 10 6 20 11 NE 1033,2 0 0,0
14.09.2019 05:00:00 12,8 12,8 11 6 19 10 NE 1033,1 0 0,0
14.09.2019 04:00:00 13,0 13,0 8 4 19 10 NE 1032,9 0 0,0
14.09.2019 03:00:00 13,7 13,7 10 6 22 12 NE 1033,4 0 0,0
14.09.2019 02:00:00 14,5 14,5 7 4 21 12 N 1033,9 0 0,0
14.09.2019 01:00:00 14,8 14,8 11 6 22 12 NNE 1033,8 0 0,0
14.09.2019 00:00:00 15,3 15,3 12 6 25 14 NNE 1033,8 0 0,0
13.09.2019 23:00:00 16,1 15,9 10 5 29 16 N 1033,8 0 0,0
13.09.2019 22:00:00 17,1 13,0 15 8 26 14 N 1033,5 0 0,0
13.09.2019 21:00:00 17,9 12,9 12 7 29 16 N 1033,5 0 0,0
13.09.2019 20:00:00 18,7 12,7 14 8 29 15 N 1032,9 3 0,0
13.09.2019 19:00:00 19,9 12,9 16 9 27 15 NNW 1032,4 18 0,0
13.09.2019 18:00:00 21,4 18,6 14 8 24 13 NNW 1032,2 47 0,0
13.09.2019 17:00:00 21,0 21,0 10 5 25 13 N 1032,2 23 0,0
13.09.2019 16:00:00 21,2 21,2 11 6 24 13 NNW 1032,2 18 0,0

tt = Température de l'air
td = dewpoint
ff = Vitesse du vent
fx = gusts
dd = Direction du vent
ppp = reduced air pressure
sd = Ensoleillement
rr = Quantités de précipitations

stations d'obs. à proximité